createdAt,value
2018-12-11T06:31:12.541Z,42.70
2018-12-11T06:33:42.741Z,39.30
2018-12-11T06:36:11.208Z,39.90
2018-12-11T06:38:40.243Z,40.40
2018-12-11T06:41:09.344Z,41.50
2018-12-11T06:43:38.239Z,40.90
2018-12-11T06:46:07.195Z,40.80
2018-12-11T06:48:36.307Z,41.20
2018-12-11T06:51:06.683Z,41.30
2018-12-11T06:53:35.516Z,41.50
2018-12-11T06:56:04.194Z,41.90
2018-12-11T06:58:32.948Z,41.50
2018-12-11T07:01:02.116Z,41.60
2018-12-11T07:03:31.626Z,41.60
2018-12-11T07:06:00.735Z,41.70
2018-12-11T07:08:30.168Z,41.80
2018-12-11T07:10:58.989Z,41.90
2018-12-11T07:13:27.436Z,41.90
2018-12-11T07:15:56.131Z,41.90
2018-12-11T07:18:26.046Z,41.90
2018-12-11T07:20:54.736Z,41.80
2018-12-11T07:23:23.407Z,41.80
2018-12-11T07:25:52.099Z,41.80
2018-12-11T07:28:20.787Z,41.80
2018-12-11T07:30:50.389Z,42.10
2018-12-11T07:33:19.490Z,42.50
2018-12-11T07:35:47.838Z,43.00
2018-12-11T07:38:17.108Z,43.10
2018-12-11T07:40:46.207Z,43.40
2018-12-11T07:43:14.894Z,43.40
2018-12-11T07:45:43.664Z,43.40
2018-12-11T07:48:12.965Z,43.40
2018-12-11T07:50:42.147Z,43.40
2018-12-11T07:53:13.152Z,43.40
2018-12-11T07:55:41.843Z,43.40
2018-12-11T07:58:11.227Z,43.60
2018-12-11T08:00:40.104Z,43.50
2018-12-11T08:03:08.816Z,43.70
2018-12-11T08:05:38.208Z,43.70
2018-12-11T08:08:08.744Z,43.70
2018-12-11T08:10:39.946Z,43.80
2018-12-11T08:13:08.983Z,43.60
2018-12-11T08:15:38.385Z,43.60
2018-12-11T08:18:07.102Z,43.30
2018-12-11T08:20:37.296Z,43.30
2018-12-11T08:23:06.028Z,43.20
2018-12-11T08:25:35.619Z,43.00
2018-12-11T08:28:04.703Z,42.80
2018-12-11T08:30:33.411Z,42.70
2018-12-11T08:33:02.411Z,43.30
2018-12-11T08:35:32.456Z,42.50
2018-12-11T08:38:01.983Z,42.40
2018-12-11T08:40:30.963Z,42.30
2018-12-11T08:42:59.660Z,42.40
2018-12-11T08:45:28.881Z,42.20
2018-12-11T08:47:57.560Z,42.10
2018-12-11T08:50:26.560Z,41.90
2018-12-11T08:52:55.583Z,41.90
2018-12-11T08:55:25.463Z,41.80
2018-12-11T08:57:54.830Z,41.80
2018-12-11T09:00:24.184Z,41.60
2018-12-11T09:02:52.995Z,41.50
2018-12-11T09:05:22.104Z,41.30
2018-12-11T09:07:53.820Z,41.30
2018-12-11T09:10:23.445Z,41.30
2018-12-11T09:12:52.448Z,41.20
2018-12-11T09:15:22.509Z,41.20
2018-12-11T09:17:52.019Z,41.00
2018-12-11T09:20:21.104Z,41.00
2018-12-11T09:22:50.140Z,40.90
2018-12-11T09:25:18.918Z,40.80
2018-12-11T09:27:49.423Z,40.60
2018-12-11T09:30:18.435Z,40.70
2018-12-11T09:32:47.612Z,40.60
2018-12-11T09:35:17.040Z,40.70
2018-12-11T09:37:46.163Z,41.30
2018-12-11T09:40:14.909Z,40.60
2018-12-11T09:42:44.181Z,41.20
2018-12-11T09:45:13.668Z,40.50
2018-12-11T09:47:43.188Z,40.40
2018-12-11T09:50:12.291Z,40.40
2018-12-11T09:52:40.993Z,40.50
2018-12-11T09:55:10.135Z,40.50
2018-12-11T09:57:39.324Z,40.60
2018-12-11T10:00:09.347Z,40.40
2018-12-11T10:02:40.336Z,40.40
2018-12-11T10:05:10.042Z,40.30
2018-12-11T10:07:38.752Z,40.50
2018-12-11T10:10:07.435Z,40.20
2018-12-11T10:12:36.600Z,40.40
2018-12-11T10:15:06.267Z,40.40
2018-12-11T10:17:35.398Z,40.30
2018-12-11T10:20:05.568Z,40.20
2018-12-11T10:22:33.992Z,40.40
2018-12-11T10:25:03.051Z,40.10
2018-12-11T10:27:32.188Z,40.00
2018-12-11T10:30:01.279Z,40.20
2018-12-11T10:32:30.412Z,39.90
2018-12-11T10:34:59.124Z,40.10
2018-12-11T10:37:28.270Z,40.40
2018-12-11T10:39:56.967Z,40.20
2018-12-11T10:42:27.807Z,40.30
2018-12-11T10:44:56.819Z,40.30
2018-12-11T10:47:25.962Z,40.10
2018-12-11T10:49:55.229Z,39.90
2018-12-11T10:52:24.320Z,39.90
2018-12-11T10:54:53.411Z,39.60
2018-12-11T10:57:22.637Z,39.70
2018-12-11T10:59:51.443Z,40.00
2018-12-11T11:02:23.433Z,39.90
2018-12-11T11:04:52.132Z,40.20
2018-12-11T11:07:21.579Z,39.90
2018-12-11T11:09:50.909Z,40.00
2018-12-11T11:12:19.579Z,40.70
2018-12-11T11:17:17.147Z,40.00
2018-12-11T11:19:46.740Z,40.00
2018-12-11T11:22:15.944Z,40.10
2018-12-11T11:24:44.643Z,40.00
2018-12-11T11:27:13.469Z,40.70
2018-12-11T11:29:42.146Z,39.90
2018-12-11T11:32:12.626Z,40.00
2018-12-11T11:34:41.820Z,40.10
2018-12-11T11:37:10.495Z,40.20
2018-12-11T11:39:40.022Z,40.10
2018-12-11T11:42:10.041Z,40.60
2018-12-11T11:44:38.799Z,40.60
2018-12-11T11:47:07.734Z,40.50
2018-12-11T11:49:38.539Z,40.70
2018-12-11T11:52:07.543Z,40.40
2018-12-11T11:54:36.708Z,40.60
2018-12-11T11:57:05.779Z,40.80
2018-12-11T11:59:35.879Z,40.90
2018-12-11T12:02:04.640Z,40.90
2018-12-11T12:04:33.488Z,40.70
2018-12-11T12:07:03.621Z,40.80
2018-12-11T12:09:32.943Z,40.80
2018-12-11T12:12:01.957Z,40.80
2018-12-11T12:14:31.703Z,40.80
2018-12-11T12:17:00.683Z,40.60
2018-12-11T12:19:29.955Z,40.90
2018-12-11T12:21:58.759Z,40.90
2018-12-11T12:24:28.224Z,40.90
2018-12-11T12:26:56.912Z,41.10
2018-12-11T12:29:26.305Z,41.10
2018-12-11T12:31:55.408Z,41.00
2018-12-11T12:34:24.775Z,40.90
2018-12-11T12:36:54.367Z,41.00
2018-12-11T12:39:23.196Z,41.00
2018-12-11T12:41:52.515Z,40.90
2018-12-11T12:44:21.676Z,40.90
2018-12-11T12:46:50.410Z,40.90
2018-12-11T12:49:19.131Z,40.90
2018-12-11T12:51:47.888Z,40.80
2018-12-11T12:54:17.030Z,40.80
2018-12-11T12:56:46.036Z,40.80
2018-12-11T12:59:15.593Z,40.90
2018-12-11T13:01:44.600Z,40.80
2018-12-11T13:04:13.826Z,40.80
2018-12-11T13:06:44.251Z,40.80
2018-12-11T13:09:12.963Z,40.80
2018-12-11T13:11:41.957Z,40.70
2018-12-11T13:14:10.946Z,40.70
2018-12-11T13:16:40.369Z,40.70
2018-12-11T13:19:09.573Z,40.60
2018-12-11T13:21:38.465Z,40.70
2018-12-11T13:24:07.861Z,40.70
2018-12-11T13:26:36.700Z,40.60
2018-12-11T13:29:06.153Z,40.60
2018-12-11T13:31:35.347Z,40.50
2018-12-11T13:34:04.444Z,40.40
2018-12-11T13:36:34.024Z,40.20
2018-12-11T13:39:03.204Z,40.30
2018-12-11T13:41:32.341Z,40.20
2018-12-11T13:44:01.445Z,40.10
2018-12-11T13:46:30.951Z,40.20
2018-12-11T13:48:59.651Z,40.20
2018-12-11T13:51:29.281Z,40.10
2018-12-11T13:53:58.777Z,40.10
2018-12-11T13:56:27.927Z,40.00
2018-12-11T13:58:58.553Z,40.70
2018-12-11T14:01:27.713Z,40.00
2018-12-11T14:03:56.787Z,40.10
2018-12-11T14:06:26.187Z,40.20
2018-12-11T14:08:55.243Z,40.00
2018-12-11T14:11:24.053Z,39.90
2018-12-11T14:13:53.278Z,39.80
2018-12-11T14:18:51.148Z,39.80
2018-12-11T14:21:19.860Z,39.80
2018-12-11T14:26:17.907Z,39.90
2018-12-11T14:28:48.136Z,39.80
2018-12-11T14:31:17.353Z,39.70
2018-12-11T14:33:46.579Z,39.80
2018-12-11T14:36:15.431Z,39.80
2018-12-11T14:38:44.660Z,39.80
2018-12-11T14:41:14.703Z,39.70
2018-12-11T14:43:43.780Z,39.70
2018-12-11T14:46:12.509Z,39.80
2018-12-11T14:48:41.843Z,39.70
2018-12-11T14:51:12.191Z,39.70
2018-12-11T14:53:41.240Z,39.70
2018-12-11T14:56:10.366Z,39.60
2018-12-11T14:58:39.579Z,39.60
2018-12-11T15:01:08.696Z,39.30
2018-12-11T15:03:37.383Z,40.10
2018-12-11T15:06:06.812Z,40.60
2018-12-11T15:08:36.000Z,40.90
2018-12-11T15:11:05.083Z,41.30
2018-12-11T15:13:33.800Z,41.70
2018-12-11T15:16:02.872Z,42.00
2018-12-11T15:18:32.329Z,42.10
2018-12-11T15:21:01.036Z,42.10
2018-12-11T15:23:30.629Z,42.40
2018-12-11T15:26:00.857Z,42.40
2018-12-11T15:28:30.207Z,42.60
2018-12-11T15:31:10.657Z,42.20
2018-12-11T15:33:39.702Z,42.40
2018-12-11T15:36:09.266Z,42.50
2018-12-11T15:38:38.086Z,42.50
2018-12-11T15:41:06.916Z,42.50
2018-12-11T15:43:36.052Z,42.60
2018-12-11T15:46:04.759Z,42.50
2018-12-11T15:48:33.471Z,42.30
2018-12-11T15:51:02.160Z,42.30
2018-12-11T15:53:32.999Z,43.00
2018-12-11T15:56:02.291Z,42.30
2018-12-11T15:58:31.356Z,42.20
2018-12-11T16:01:00.160Z,42.20
2018-12-11T16:03:29.584Z,42.10
2018-12-11T16:05:58.837Z,42.30
2018-12-11T16:08:28.992Z,42.30
2018-12-11T16:10:58.594Z,42.10
2018-12-11T16:13:27.298Z,42.20
2018-12-11T16:15:56.030Z,43.00
2018-12-11T16:18:25.024Z,42.30
2018-12-11T16:20:55.356Z,42.20
2018-12-11T16:23:24.851Z,42.20
2018-12-11T16:25:54.023Z,42.20
2018-12-11T16:28:23.168Z,42.30
2018-12-11T16:30:52.090Z,42.30
2018-12-11T16:33:22.091Z,42.10
2018-12-11T16:35:51.710Z,42.70
2018-12-11T16:38:22.484Z,42.40
2018-12-11T16:43:21.652Z,42.20
2018-12-11T16:45:50.388Z,42.20
2018-12-11T16:48:19.448Z,42.20
2018-12-11T16:50:48.501Z,42.30
2018-12-11T16:53:17.494Z,42.30
2018-12-11T16:55:46.947Z,42.40
2018-12-11T16:58:16.486Z,42.40
2018-12-11T17:03:14.688Z,42.40
2018-12-11T17:05:44.100Z,42.30
2018-12-11T17:08:12.804Z,42.30
2018-12-11T17:10:41.876Z,42.40
2018-12-11T17:13:11.285Z,42.40
2018-12-11T17:15:40.747Z,42.30
2018-12-11T17:18:09.816Z,42.40
2018-12-11T17:20:39.017Z,42.30
2018-12-11T17:23:08.003Z,42.30
2018-12-11T17:25:37.276Z,42.40
2018-12-11T17:28:06.760Z,42.40
2018-12-11T17:30:36.229Z,42.40
2018-12-11T17:33:05.532Z,42.30
2018-12-11T17:35:35.166Z,42.30
2018-12-11T17:38:04.176Z,42.20
2018-12-11T17:40:33.667Z,42.30
2018-12-11T17:43:02.743Z,42.00
2018-12-11T17:45:32.206Z,42.20
2018-12-11T17:48:01.426Z,42.20
2018-12-11T17:50:30.836Z,42.30
2018-12-11T17:53:00.032Z,42.20
2018-12-11T17:55:30.236Z,42.10
2018-12-11T17:57:59.437Z,42.10
2018-12-11T18:00:29.028Z,42.10
2018-12-11T18:02:58.047Z,42.10
2018-12-11T18:05:27.523Z,42.10
2018-12-11T18:07:56.675Z,42.20
2018-12-11T18:10:26.160Z,41.90
2018-12-11T18:12:55.776Z,42.10
2018-12-11T18:15:26.049Z,42.10
2018-12-11T18:17:56.183Z,42.10
2018-12-11T18:20:25.795Z,42.10
2018-12-11T18:22:55.333Z,42.00
2018-12-11T18:25:24.774Z,42.00
2018-12-11T18:27:53.953Z,41.90
2018-12-11T18:30:23.532Z,42.00
2018-12-11T18:32:52.958Z,42.00
2018-12-11T18:35:21.700Z,42.10
2018-12-11T18:37:50.843Z,42.10
2018-12-11T18:40:20.295Z,42.60
2018-12-11T18:42:49.687Z,42.10
2018-12-11T18:45:19.004Z,42.10
2018-12-11T18:47:50.005Z,42.20
2018-12-11T18:50:21.309Z,42.40
2018-12-11T18:52:47.452Z,42.20
2018-12-11T18:55:16.180Z,42.10
2018-12-11T18:57:45.612Z,42.10
2018-12-11T19:00:15.285Z,42.00
2018-12-11T19:02:44.820Z,42.10
2018-12-11T19:05:14.746Z,42.00
2018-12-11T19:07:44.209Z,42.10
2018-12-11T19:10:13.038Z,42.00
2018-12-11T19:12:42.523Z,42.00
2018-12-11T19:15:11.736Z,41.80
2018-12-11T19:17:41.164Z,42.00
2018-12-11T19:20:09.895Z,41.90
2018-12-11T19:22:38.639Z,42.00
2018-12-11T19:25:11.724Z,41.90
2018-12-11T19:27:40.736Z,41.90
2018-12-11T19:30:09.741Z,41.90
2018-12-11T19:32:39.420Z,42.00
2018-12-11T19:35:08.874Z,41.90
2018-12-11T19:37:38.300Z,41.80
2018-12-11T19:40:09.781Z,41.80
2018-12-11T19:42:39.859Z,41.80
2018-12-11T19:45:08.984Z,41.80
2018-12-11T19:47:38.191Z,41.90
2018-12-11T19:50:07.585Z,41.80
2018-12-11T19:52:39.939Z,41.80
2018-12-11T19:55:06.572Z,41.60
2018-12-11T19:57:36.027Z,41.80
2018-12-11T20:00:05.598Z,41.80
2018-12-11T20:02:34.616Z,41.80
2018-12-11T20:05:03.663Z,41.80
2018-12-11T20:07:33.227Z,41.80
2018-12-11T20:10:08.132Z,41.60
2018-12-11T20:12:37.820Z,41.70
2018-12-11T20:15:07.785Z,41.60
2018-12-11T20:17:37.188Z,41.60
2018-12-11T20:20:06.508Z,41.40
2018-12-11T20:22:35.500Z,41.30
2018-12-11T20:25:04.645Z,41.40
2018-12-11T20:27:33.656Z,41.30
2018-12-11T20:30:02.940Z,41.30
2018-12-11T20:32:31.692Z,41.40
2018-12-11T20:35:02.668Z,41.50
2018-12-11T20:37:31.813Z,41.50
2018-12-11T20:40:01.258Z,41.60
2018-12-11T20:42:30.282Z,41.50
2018-12-11T20:44:59.338Z,41.60
2018-12-11T20:47:28.398Z,41.60
2018-12-11T20:49:57.660Z,41.70
2018-12-11T20:52:26.725Z,41.70
2018-12-11T20:54:56.200Z,41.70
2018-12-11T20:57:25.645Z,41.70
2018-12-11T20:59:54.728Z,41.60
2018-12-11T21:02:23.818Z,41.50
2018-12-11T21:04:53.181Z,41.60
2018-12-11T21:07:22.625Z,41.70
2018-12-11T21:09:52.194Z,41.60
2018-12-11T21:12:22.870Z,41.60
2018-12-11T21:14:52.244Z,41.60
2018-12-11T21:17:21.298Z,41.50
2018-12-11T21:19:50.740Z,41.40
2018-12-11T21:22:19.752Z,41.40
2018-12-11T21:24:49.007Z,41.40
2018-12-11T21:27:18.739Z,41.40
2018-12-11T21:29:47.576Z,41.40
2018-12-11T21:34:45.519Z,41.40
2018-12-11T21:37:15.096Z,41.30
2018-12-11T21:39:44.541Z,41.30
2018-12-11T21:42:14.672Z,41.30
2018-12-11T21:44:45.100Z,41.30
2018-12-11T21:47:15.896Z,41.20
2018-12-11T21:49:46.221Z,41.80
2018-12-11T21:52:15.686Z,41.20
2018-12-11T21:54:44.385Z,41.20
